createdAt,value
2018-03-18T00:00:05.706Z,80.52
2018-03-18T00:02:31.601Z,81.04
2018-03-18T00:05:00.704Z,81.14
2018-03-18T00:07:26.556Z,81.47
2018-03-18T00:09:55.623Z,80.95
2018-03-18T00:12:21.475Z,81.24
2018-03-18T00:14:50.416Z,81.43
2018-03-18T00:17:16.296Z,81.40
2018-03-18T00:19:45.178Z,80.58
2018-03-18T00:22:11.048Z,80.22
2018-03-18T00:24:36.877Z,80.38
2018-03-18T00:27:02.739Z,80.06
2018-03-18T00:29:28.602Z,80.50
2018-03-18T00:31:57.994Z,80.60
2018-03-18T00:34:23.816Z,79.94
2018-03-18T00:36:50.817Z,80.63
2018-03-18T00:39:16.658Z,80.95
2018-03-18T00:41:45.500Z,80.79
2018-03-18T00:44:11.341Z,80.73
2018-03-18T00:46:40.085Z,80.49
2018-03-18T00:49:05.933Z,80.56
2018-03-18T00:51:44.178Z,81.11
2018-03-18T00:54:10.145Z,80.37
2018-03-18T00:56:35.940Z,80.28
2018-03-18T00:59:01.849Z,80.84
2018-03-18T01:01:27.707Z,81.16
2018-03-18T01:03:53.575Z,81.58
2018-03-18T01:06:19.429Z,81.60
2018-03-18T01:08:45.264Z,81.96
2018-03-18T01:11:11.136Z,81.84
2018-03-18T01:13:36.986Z,81.49
2018-03-18T01:16:02.863Z,80.80
2018-03-18T01:18:32.023Z,81.04
2018-03-18T01:20:57.898Z,81.00
2018-03-18T01:23:25.898Z,80.52
2018-03-18T01:25:51.746Z,80.68
2018-03-18T01:28:21.115Z,81.19
2018-03-18T01:30:46.989Z,81.10
2018-03-18T01:33:15.979Z,81.28
2018-03-18T01:35:41.819Z,81.11
2018-03-18T01:38:07.687Z,80.71
2018-03-18T01:40:33.579Z,81.06
2018-03-18T01:42:59.468Z,80.69
2018-03-18T01:45:28.572Z,80.99
2018-03-18T01:47:54.416Z,80.81
2018-03-18T01:50:22.114Z,81.15
2018-03-18T01:53:00.422Z,81.20
2018-03-18T01:55:26.262Z,81.30
2018-03-18T01:57:52.118Z,81.58
2018-03-18T02:00:18.034Z,81.31
2018-03-18T02:02:43.862Z,81.64
2018-03-18T02:05:09.733Z,81.56
2018-03-18T02:07:35.591Z,81.32
2018-03-18T02:10:01.458Z,80.86
2018-03-18T02:12:27.304Z,80.81
2018-03-18T02:14:53.157Z,81.17
2018-03-18T02:17:19.160Z,80.97
2018-03-18T02:19:45.029Z,81.17
2018-03-18T02:22:12.198Z,80.92
2018-03-18T02:24:38.063Z,80.58
2018-03-18T02:27:06.914Z,80.70
2018-03-18T02:29:32.758Z,80.45
2018-03-18T02:32:01.577Z,80.43
2018-03-18T02:34:27.463Z,80.34
2018-03-18T02:36:56.453Z,80.81
2018-03-18T02:39:22.300Z,80.17
2018-03-18T02:41:52.114Z,80.38
2018-03-18T02:44:17.999Z,80.54
2018-03-18T02:46:46.901Z,80.64
2018-03-18T02:49:12.761Z,80.61
2018-03-18T02:51:38.671Z,80.72
2018-03-18T02:54:04.532Z,80.48
2018-03-18T02:56:30.390Z,80.38
2018-03-18T02:58:57.841Z,80.71
2018-03-18T03:01:23.702Z,80.70
2018-03-18T03:03:52.697Z,81.27
2018-03-18T03:06:18.627Z,81.59
2018-03-18T03:08:47.503Z,81.23
2018-03-18T03:11:13.370Z,81.44
2018-03-18T03:13:42.631Z,81.59
2018-03-18T03:16:08.477Z,81.62
2018-03-18T03:18:37.469Z,81.55
2018-03-18T03:21:03.357Z,81.60
2018-03-18T03:23:32.529Z,81.57
2018-03-18T03:25:58.414Z,81.53
2018-03-18T03:28:24.257Z,81.07
2018-03-18T03:30:50.122Z,81.25
2018-03-18T03:33:15.977Z,81.80
2018-03-18T03:35:42.825Z,81.40
2018-03-18T03:38:08.683Z,81.11
2018-03-18T03:40:37.488Z,81.47
2018-03-18T03:43:03.378Z,81.98
2018-03-18T03:45:32.219Z,81.93
2018-03-18T03:47:58.088Z,81.96
2018-03-18T03:50:26.726Z,81.34
2018-03-18T03:55:33.487Z,82.06
2018-03-18T03:57:59.359Z,82.00
2018-03-18T04:00:25.194Z,82.08
2018-03-18T04:02:51.063Z,81.96
2018-03-18T04:05:16.918Z,81.97
2018-03-18T04:07:42.790Z,81.98
2018-03-18T04:10:08.640Z,81.64
2018-03-18T04:12:34.499Z,81.55
2018-03-18T04:15:00.388Z,81.55
2018-03-18T04:17:26.216Z,81.29
2018-03-18T04:19:52.076Z,81.63
2018-03-18T04:22:17.909Z,81.80
2018-03-18T04:24:43.770Z,81.52
2018-03-18T04:27:12.804Z,81.58
2018-03-18T04:29:38.656Z,81.79
2018-03-18T04:32:07.545Z,81.48
2018-03-18T04:34:33.432Z,81.48
2018-03-18T04:37:02.521Z,81.54
2018-03-18T04:39:28.368Z,82.17
2018-03-18T04:41:54.227Z,82.35
2018-03-18T04:44:20.057Z,82.18
2018-03-18T04:46:45.927Z,82.53
2018-03-18T04:49:13.320Z,82.38
2018-03-18T04:51:39.169Z,82.42
2018-03-18T04:54:07.862Z,82.78
2018-03-18T04:56:33.724Z,82.33
2018-03-18T04:59:02.566Z,82.01
2018-03-18T05:01:28.434Z,82.12
2018-03-18T05:03:57.106Z,82.60
2018-03-18T05:06:22.978Z,82.55
2018-03-18T05:11:19.783Z,82.33
2018-03-18T05:13:47.131Z,82.62
2018-03-18T05:16:12.999Z,82.66
2018-03-18T05:18:38.838Z,82.53
2018-03-18T05:21:04.703Z,82.52
2018-03-18T05:23:30.603Z,82.92
2018-03-18T05:25:59.527Z,82.91
2018-03-18T05:28:25.390Z,82.62
2018-03-18T05:30:54.995Z,82.69
2018-03-18T05:33:20.855Z,82.81
2018-03-18T05:35:48.084Z,83.19
2018-03-18T05:38:13.947Z,82.59
2018-03-18T05:40:43.197Z,82.80
2018-03-18T05:43:09.052Z,82.89
2018-03-18T05:45:38.375Z,82.75
2018-03-18T05:48:04.209Z,82.51
2018-03-18T05:50:32.471Z,82.42
2018-03-18T05:52:58.329Z,82.62
2018-03-18T05:55:24.162Z,82.54
2018-03-18T05:57:50.004Z,82.79
2018-03-18T06:00:15.895Z,82.31
2018-03-18T06:02:45.497Z,82.67
2018-03-18T06:05:11.330Z,82.32
2018-03-18T06:07:38.518Z,82.09
2018-03-18T06:10:04.386Z,82.44
2018-03-18T06:12:33.281Z,82.70
2018-03-18T06:14:59.121Z,82.70
2018-03-18T06:17:27.843Z,82.97
2018-03-18T06:19:53.714Z,82.67
2018-03-18T06:22:22.505Z,82.28
2018-03-18T06:24:48.435Z,81.93
2018-03-18T06:27:17.912Z,81.90
2018-03-18T06:29:43.785Z,81.66
2018-03-18T06:32:09.672Z,81.78
2018-03-18T06:34:35.497Z,82.36
2018-03-18T06:37:01.381Z,82.29
2018-03-18T06:39:30.576Z,81.75
2018-03-18T06:41:56.438Z,81.88
2018-03-18T06:44:23.825Z,81.59
2018-03-18T06:46:49.696Z,81.61
2018-03-18T06:49:19.477Z,81.87
2018-03-18T06:51:45.337Z,81.82
2018-03-18T06:54:13.119Z,81.80
2018-03-18T06:56:38.969Z,81.37
2018-03-18T06:59:08.320Z,81.08
2018-03-18T07:01:34.209Z,80.94
2018-03-18T07:04:03.768Z,80.78
2018-03-18T07:06:29.609Z,80.66
2018-03-18T07:08:55.437Z,80.24
2018-03-18T07:11:21.276Z,80.31
2018-03-18T07:13:47.124Z,80.21
2018-03-18T07:16:14.419Z,80.19
2018-03-18T07:18:40.262Z,80.05
2018-03-18T07:21:09.469Z,80.05
2018-03-18T07:23:35.339Z,79.62
2018-03-18T07:26:05.059Z,79.92
2018-03-18T07:28:30.919Z,79.65
2018-03-18T07:30:58.801Z,79.67
2018-03-18T07:33:24.687Z,79.11
2018-03-18T07:35:53.961Z,79.06
2018-03-18T07:38:19.808Z,78.36
2018-03-18T07:40:48.810Z,78.09
2018-03-18T07:43:14.685Z,78.57
2018-03-18T07:45:40.570Z,77.43
2018-03-18T07:48:06.496Z,77.88
2018-03-18T07:50:32.424Z,76.94
2018-03-18T07:52:59.689Z,78.01
2018-03-18T07:55:25.543Z,77.78
2018-03-18T07:57:54.767Z,78.28
2018-03-18T08:00:20.616Z,76.62
2018-03-18T08:02:50.050Z,76.66
2018-03-18T08:05:15.927Z,76.71
2018-03-18T08:07:44.273Z,76.73
2018-03-18T08:10:10.129Z,76.27
2018-03-18T08:12:39.071Z,76.14
2018-03-18T08:15:04.948Z,76.53
2018-03-18T08:17:34.151Z,76.44
2018-03-18T08:19:59.998Z,76.66
2018-03-18T08:22:25.866Z,77.14
2018-03-18T08:24:51.690Z,78.10
2018-03-18T08:27:17.555Z,76.93
2018-03-18T08:29:45.294Z,76.28
2018-03-18T08:32:11.172Z,76.08
2018-03-18T08:34:40.774Z,74.27
2018-03-18T08:37:06.629Z,75.32
2018-03-18T08:39:34.614Z,74.87
2018-03-18T08:42:00.498Z,73.96
2018-03-18T08:44:29.996Z,73.74
2018-03-18T08:46:55.863Z,73.18
2018-03-18T08:49:23.949Z,73.14
2018-03-18T08:51:49.835Z,73.38
2018-03-18T08:54:18.586Z,73.31
2018-03-18T08:56:44.457Z,73.52
2018-03-18T08:59:10.318Z,73.53
2018-03-18T09:01:36.156Z,73.37
2018-03-18T09:04:02.017Z,73.09
2018-03-18T09:06:31.141Z,73.07
2018-03-18T09:08:57.010Z,71.69
2018-03-18T09:11:26.559Z,71.80
2018-03-18T09:13:52.427Z,70.82
2018-03-18T09:16:19.767Z,71.34
2018-03-18T09:18:45.654Z,71.60
2018-03-18T09:21:14.575Z,70.68
2018-03-18T09:23:40.428Z,71.17
2018-03-18T09:26:09.131Z,69.91
2018-03-18T09:28:34.971Z,69.44
2018-03-18T09:31:03.710Z,70.20
2018-03-18T09:33:29.601Z,70.41
2018-03-18T09:35:55.471Z,69.83
2018-03-18T09:38:21.346Z,69.59
2018-03-18T09:40:47.214Z,68.88
2018-03-18T09:43:16.977Z,69.38
2018-03-18T09:45:42.868Z,69.16
2018-03-18T09:48:10.335Z,68.78
2018-03-18T09:50:36.223Z,68.92
2018-03-18T09:55:30.962Z,69.22
2018-03-18T09:57:59.677Z,67.97
2018-03-18T10:00:25.512Z,67.57
2018-03-18T10:02:54.737Z,68.68
2018-03-18T10:05:20.613Z,69.73
2018-03-18T10:07:49.825Z,69.04
2018-03-18T10:10:15.695Z,67.57
2018-03-18T10:12:41.533Z,67.67
2018-03-18T10:15:07.397Z,67.77
2018-03-18T10:17:33.263Z,67.18
2018-03-18T10:20:00.826Z,67.09
2018-03-18T10:22:26.670Z,66.86
2018-03-18T10:24:55.530Z,66.62
2018-03-18T10:27:21.402Z,66.07
2018-03-18T10:29:50.571Z,64.84
2018-03-18T10:32:16.452Z,65.49
2018-03-18T10:34:45.905Z,65.75
2018-03-18T10:37:11.767Z,65.43
2018-03-18T10:39:41.326Z,65.16
2018-03-18T10:42:07.225Z,65.46
2018-03-18T10:44:34.496Z,65.62
2018-03-18T10:47:00.366Z,66.42
2018-03-18T10:49:26.197Z,65.46
2018-03-18T10:51:52.080Z,65.89
2018-03-18T10:54:17.934Z,65.08
2018-03-18T10:56:46.908Z,65.80
2018-03-18T10:59:12.761Z,65.46
2018-03-18T11:01:48.069Z,65.70
2018-03-18T11:04:16.922Z,64.99
2018-03-18T11:06:42.804Z,65.44
2018-03-18T11:09:08.670Z,65.48
2018-03-18T11:11:34.541Z,65.57
2018-03-18T11:14:00.439Z,63.43
2018-03-18T11:16:26.296Z,64.55
2018-03-18T11:18:52.170Z,64.97
2018-03-18T11:21:21.349Z,65.76
2018-03-18T11:23:47.280Z,65.06
2018-03-18T11:26:13.158Z,64.59
2018-03-18T11:28:39.055Z,65.55
2018-03-18T11:31:04.947Z,64.37
2018-03-18T11:33:31.754Z,64.80
2018-03-18T11:35:57.605Z,65.15
2018-03-18T11:38:26.315Z,64.19
2018-03-18T11:40:52.183Z,64.43
2018-03-18T11:43:21.495Z,63.92
2018-03-18T11:45:47.352Z,61.62
2018-03-18T11:48:16.803Z,62.40
2018-03-18T11:50:42.646Z,62.49
2018-03-18T11:53:10.303Z,62.79
2018-03-18T11:55:36.194Z,62.41
2018-03-18T11:58:05.165Z,63.80
2018-03-18T12:00:31.036Z,62.84
2018-03-18T12:02:56.921Z,62.29
2018-03-18T12:05:22.883Z,62.08
2018-03-18T12:07:48.741Z,61.40
2018-03-18T12:10:18.527Z,61.26
2018-03-18T12:12:44.401Z,60.75
2018-03-18T12:15:11.802Z,61.77
2018-03-18T12:17:37.678Z,60.26
2018-03-18T12:20:06.635Z,60.46
2018-03-18T12:22:32.516Z,59.91
2018-03-18T12:25:01.505Z,59.53
2018-03-18T12:27:27.375Z,59.37
2018-03-18T12:29:56.436Z,58.74
2018-03-18T12:32:22.316Z,58.81
2018-03-18T12:34:51.499Z,59.44
2018-03-18T12:37:17.383Z,59.60
2018-03-18T12:39:55.653Z,58.93
2018-03-18T12:42:33.927Z,60.64
2018-03-18T12:44:59.782Z,60.27
2018-03-18T12:47:25.648Z,60.87
2018-03-18T12:49:51.484Z,60.78
2018-03-18T12:52:17.344Z,62.38
2018-03-18T12:54:43.273Z,61.91
2018-03-18T12:57:09.072Z,62.34
2018-03-18T12:59:34.974Z,62.17
2018-03-18T13:02:00.840Z,61.45
2018-03-18T13:04:26.694Z,62.33
2018-03-18T13:06:52.556Z,61.76
2018-03-18T13:09:18.411Z,61.87
2018-03-18T13:11:44.298Z,61.87
2018-03-18T13:14:10.150Z,61.64
2018-03-18T13:16:35.978Z,61.89
2018-03-18T13:19:01.855Z,62.63
2018-03-18T13:21:28.724Z,62.71
2018-03-18T13:23:54.618Z,61.86
2018-03-18T13:26:20.467Z,61.22
2018-03-18T13:28:46.334Z,61.50
2018-03-18T13:31:12.171Z,62.18
2018-03-18T13:33:38.061Z,63.63
2018-03-18T13:36:03.938Z,63.34
2018-03-18T13:38:31.545Z,62.96
2018-03-18T13:40:57.450Z,62.82
2018-03-18T13:43:26.139Z,62.23
2018-03-18T13:45:52.024Z,62.44
2018-03-18T13:48:20.877Z,63.18
2018-03-18T13:50:46.747Z,63.29
2018-03-18T13:53:12.632Z,64.19
2018-03-18T13:55:38.560Z,64.30
2018-03-18T13:58:04.420Z,63.95
2018-03-18T14:00:34.108Z,64.22
2018-03-18T14:02:59.962Z,63.30
2018-03-18T14:05:27.437Z,63.19
2018-03-18T14:07:53.286Z,63.50
2018-03-18T14:10:22.150Z,63.31
2018-03-18T14:12:48.016Z,62.82
2018-03-18T14:15:16.997Z,63.31
2018-03-18T14:17:42.876Z,63.43
2018-03-18T14:20:11.811Z,62.61
2018-03-18T14:22:37.653Z,63.13
2018-03-18T14:25:06.978Z,64.21
2018-03-18T14:27:32.879Z,64.71
2018-03-18T14:29:58.754Z,64.86
2018-03-18T14:32:24.603Z,65.77
2018-03-18T14:34:50.466Z,64.89
2018-03-18T14:37:18.100Z,65.43
2018-03-18T14:39:43.986Z,65.12
2018-03-18T14:42:13.283Z,65.13
2018-03-18T14:44:39.155Z,65.06
2018-03-18T14:47:08.205Z,65.12
2018-03-18T14:49:34.058Z,66.25
2018-03-18T14:52:03.188Z,66.33
2018-03-18T14:54:29.028Z,66.57
2018-03-18T14:56:58.358Z,66.91
2018-03-18T14:59:24.232Z,66.88
2018-03-18T15:01:53.164Z,65.70
2018-03-18T15:04:19.053Z,66.58
2018-03-18T15:06:44.922Z,66.14
2018-03-18T15:09:10.772Z,65.87
2018-03-18T15:11:36.613Z,66.16
2018-03-18T15:14:03.514Z,65.78
2018-03-18T15:16:29.361Z,66.73
2018-03-18T15:18:58.712Z,66.57
2018-03-18T15:21:24.617Z,66.25
2018-03-18T15:23:53.697Z,65.98
2018-03-18T15:26:19.546Z,66.18
2018-03-18T15:28:48.962Z,66.83
2018-03-18T15:31:14.856Z,66.96
2018-03-18T15:33:42.304Z,67.30
2018-03-18T15:36:08.147Z,67.30
2018-03-18T15:38:37.520Z,68.15
2018-03-18T15:41:03.397Z,68.54
2018-03-18T15:43:29.275Z,68.27
2018-03-18T15:45:55.200Z,66.95
2018-03-18T15:48:21.107Z,66.76
2018-03-18T15:50:48.361Z,67.60
2018-03-18T15:53:14.210Z,67.49
2018-03-18T15:55:42.907Z,67.06
2018-03-18T15:58:08.773Z,67.27
2018-03-18T16:00:37.370Z,68.44
2018-03-18T16:03:03.251Z,68.47
2018-03-18T16:05:31.227Z,68.35
2018-03-18T16:07:57.069Z,68.40
2018-03-18T16:10:22.949Z,68.72
2018-03-18T16:12:49.414Z,68.63
2018-03-18T16:15:15.260Z,68.88
2018-03-18T16:17:44.017Z,68.48
2018-03-18T16:20:09.841Z,68.60
2018-03-18T16:22:38.546Z,69.88
2018-03-18T16:25:04.422Z,69.35
2018-03-18T16:30:13.507Z,69.55
2018-03-18T16:32:39.374Z,69.34
2018-03-18T16:35:05.221Z,69.69
2018-03-18T16:37:31.092Z,70.80
2018-03-18T16:39:56.982Z,70.60
2018-03-18T16:42:22.858Z,70.39
2018-03-18T16:44:48.743Z,69.89
2018-03-18T16:47:14.588Z,69.44
2018-03-18T16:49:40.408Z,69.56
2018-03-18T16:52:07.495Z,70.18
2018-03-18T16:54:33.354Z,70.35
2018-03-18T16:56:59.167Z,70.16
2018-03-18T16:59:25.067Z,70.50
2018-03-18T17:01:50.897Z,70.23
2018-03-18T17:04:20.241Z,70.32
2018-03-18T17:06:46.097Z,70.73
2018-03-18T17:09:15.233Z,70.23
2018-03-18T17:11:41.082Z,71.24
2018-03-18T17:14:10.213Z,70.90
2018-03-18T17:16:36.031Z,70.98
2018-03-18T17:19:03.099Z,71.24
2018-03-18T17:21:28.958Z,71.54
2018-03-18T17:23:57.773Z,70.99
2018-03-18T17:26:23.626Z,71.18
2018-03-18T17:28:52.921Z,71.31
2018-03-18T17:31:18.753Z,71.73
2018-03-18T17:33:44.618Z,71.91
2018-03-18T17:36:10.477Z,72.05
2018-03-18T17:38:36.347Z,72.92
2018-03-18T17:41:05.519Z,73.19
2018-03-18T17:43:31.416Z,72.33
2018-03-18T17:46:13.180Z,72.11
2018-03-18T17:48:51.544Z,72.31
2018-03-18T17:51:29.915Z,72.27
2018-03-18T17:56:55.848Z,71.64
2018-03-18T17:59:21.735Z,71.27
2018-03-18T18:01:47.654Z,71.77
2018-03-18T18:04:13.528Z,72.85
2018-03-18T18:06:39.445Z,72.98
2018-03-18T18:09:05.348Z,72.29
2018-03-18T18:11:31.253Z,72.60
2018-03-18T18:13:57.196Z,72.41
2018-03-18T18:16:23.098Z,71.34
2018-03-18T18:18:48.994Z,71.35
2018-03-18T18:21:14.870Z,71.61
2018-03-18T18:23:40.758Z,71.68
2018-03-18T18:26:06.680Z,71.06
2018-03-18T18:28:32.607Z,70.78
2018-03-18T18:30:58.525Z,71.15
2018-03-18T18:33:24.454Z,72.12
2018-03-18T18:35:50.366Z,71.85
2018-03-18T18:38:16.225Z,72.21
2018-03-18T18:40:42.110Z,71.80
2018-03-18T18:43:08.006Z,72.30
2018-03-18T18:45:33.902Z,71.74
2018-03-18T18:47:59.782Z,71.57
2018-03-18T18:50:25.720Z,71.66
2018-03-18T18:52:51.614Z,71.19
2018-03-18T18:55:17.529Z,70.98
2018-03-18T18:57:43.501Z,70.95
2018-03-18T19:00:09.448Z,71.39
2018-03-18T19:02:35.372Z,71.46
2018-03-18T19:05:01.282Z,71.39
2018-03-18T19:07:27.185Z,71.26
2018-03-18T19:09:53.086Z,71.22
2018-03-18T19:12:19.023Z,71.03
2018-03-18T19:14:45.491Z,70.97
2018-03-18T19:17:11.397Z,71.22
2018-03-18T19:19:39.014Z,71.05
2018-03-18T19:22:05.806Z,71.02
2018-03-18T19:24:35.283Z,71.04
2018-03-18T19:27:01.186Z,71.46
2018-03-18T19:29:27.099Z,71.51
2018-03-18T19:31:53.017Z,71.43
2018-03-18T19:34:18.888Z,71.24
2018-03-18T19:36:45.838Z,71.70
2018-03-18T19:39:11.774Z,71.68
2018-03-18T19:41:41.212Z,71.68
2018-03-18T19:44:07.130Z,72.11
2018-03-18T19:46:36.315Z,71.74
2018-03-18T19:49:02.235Z,71.92
2018-03-18T19:51:29.529Z,72.24
2018-03-18T19:53:55.465Z,72.18
2018-03-18T19:56:24.422Z,71.93
2018-03-18T19:58:50.351Z,72.02
2018-03-18T20:01:20.214Z,72.15
2018-03-18T20:03:48.511Z,71.87
2018-03-18T20:06:14.409Z,72.02
2018-03-18T20:08:40.319Z,71.38
2018-03-18T20:11:06.247Z,71.93
2018-03-18T20:13:32.793Z,72.22
2018-03-18T20:15:58.660Z,72.04
2018-03-18T20:18:26.118Z,71.80
2018-03-18T20:20:52.071Z,71.91
2018-03-18T20:23:22.144Z,72.13
2018-03-18T20:25:48.074Z,72.75
2018-03-18T20:28:14.919Z,72.63
2018-03-18T20:30:40.808Z,72.50
2018-03-18T20:33:11.437Z,72.64
2018-03-18T20:35:37.333Z,72.83
2018-03-18T20:38:05.023Z,72.72
2018-03-18T20:40:30.931Z,72.42
2018-03-18T20:42:56.869Z,72.75
2018-03-18T20:45:22.759Z,73.17
2018-03-18T20:47:48.696Z,73.11
2018-03-18T20:50:16.065Z,73.03
2018-03-18T20:52:41.997Z,73.07
2018-03-18T20:55:11.872Z,73.39
2018-03-18T20:57:37.779Z,73.95
2018-03-18T21:00:06.924Z,73.54
2018-03-18T21:02:32.872Z,73.25
2018-03-18T21:05:02.000Z,72.83
2018-03-18T21:07:27.912Z,72.94
2018-03-18T21:09:55.151Z,72.84
2018-03-18T21:12:21.055Z,73.15
2018-03-18T21:14:50.922Z,73.17
2018-03-18T21:17:16.842Z,72.75
2018-03-18T21:19:42.754Z,73.12
2018-03-18T21:22:08.656Z,72.65
2018-03-18T21:24:34.694Z,72.53
2018-03-18T21:27:02.014Z,72.74
2018-03-18T21:29:31.404Z,72.95
2018-03-18T21:31:57.554Z,73.09
2018-03-18T21:34:35.878Z,72.81
2018-03-18T21:37:01.812Z,73.27
2018-03-18T21:39:27.767Z,73.29
2018-03-18T21:41:53.729Z,73.26
2018-03-18T21:44:19.589Z,72.68
2018-03-18T21:46:45.572Z,72.69
2018-03-18T21:49:12.359Z,72.45
2018-03-18T21:51:38.407Z,72.44
2018-03-18T21:54:04.288Z,72.41
2018-03-18T21:56:30.242Z,72.29
2018-03-18T21:58:56.133Z,72.49
2018-03-18T22:01:22.177Z,72.38
2018-03-18T22:03:48.151Z,72.66
2018-03-18T22:06:14.048Z,73.05
2018-03-18T22:08:41.478Z,72.95
2018-03-18T22:11:07.582Z,72.39
2018-03-18T22:13:36.490Z,73.08
2018-03-18T22:16:02.476Z,73.50
2018-03-18T22:18:31.740Z,73.52
2018-03-18T22:20:57.683Z,73.42
2018-03-18T22:23:26.771Z,73.07
2018-03-18T22:25:52.708Z,73.96
2018-03-18T22:28:20.733Z,73.76
2018-03-18T22:30:46.673Z,73.71
2018-03-18T22:33:12.618Z,73.62
2018-03-18T22:35:38.524Z,73.83
2018-03-18T22:38:04.410Z,74.07
2018-03-18T22:40:32.129Z,74.15
2018-03-18T22:42:58.057Z,74.44
2018-03-18T22:45:26.890Z,74.35
2018-03-18T22:47:52.799Z,74.21
2018-03-18T22:50:21.573Z,73.99
2018-03-18T22:52:47.487Z,73.67
2018-03-18T22:55:17.810Z,73.88
2018-03-18T22:57:43.723Z,73.50
2018-03-18T23:00:11.649Z,73.76
2018-03-18T23:02:37.555Z,73.71
2018-03-18T23:05:06.814Z,73.54
2018-03-18T23:07:32.699Z,74.10
2018-03-18T23:09:58.622Z,73.86
2018-03-18T23:12:24.516Z,74.11
2018-03-18T23:14:50.453Z,74.40
2018-03-18T23:17:17.358Z,74.52
2018-03-18T23:19:43.244Z,74.27
2018-03-18T23:22:12.757Z,74.25
2018-03-18T23:24:38.658Z,74.55
2018-03-18T23:27:08.076Z,74.64
2018-03-18T23:29:34.014Z,74.42
2018-03-18T23:32:03.002Z,74.17
2018-03-18T23:34:28.905Z,74.63
2018-03-18T23:37:00.736Z,74.80
2018-03-18T23:39:26.634Z,74.59
2018-03-18T23:41:52.629Z,74.52
2018-03-18T23:44:18.524Z,74.68
2018-03-18T23:46:44.450Z,74.47
2018-03-18T23:49:10.358Z,74.94
2018-03-18T23:51:36.225Z,74.24
2018-03-18T23:54:02.578Z,75.33
2018-03-18T23:56:28.468Z,75.12
2018-03-18T23:58:57.995Z,75.48
